Terminal Aerodrome Forecast
Issued by NWS Wilmington, NC

Home | Current Version | Previous Version | Text Only | Print | Product List | Glossary On
Versions: 1 2 3 4 5 6 7 8 9 10 11 12 13 14
649
FTUS42 KILM 192333
TAFMYR
TAF
KMYR 192333Z 2000/2024 34016KT P6SM FEW090
     FM200800 01009KT P6SM SKC
      TEMPO 2012/2016 02011G21KT
     FM201800 09009KT P6SM SKC=

USA.gov is the U.S. government's official web portal to all federal, state and local government web resources and services.